createdAt,value
2022-09-25T00:01:37.628Z,100.00
2022-09-25T00:04:06.706Z,100.00
2022-09-25T00:06:35.670Z,100.00
2022-09-25T00:09:06.834Z,100.00
2022-09-25T00:11:39.946Z,100.00
2022-09-25T00:14:08.749Z,100.00
2022-09-25T00:16:37.406Z,100.00
2022-09-25T00:19:23.403Z,100.00
2022-09-25T00:21:53.261Z,100.00
2022-09-25T00:24:22.488Z,100.00
2022-09-25T00:26:52.742Z,100.00
2022-09-25T00:29:21.810Z,100.00
2022-09-25T00:31:50.471Z,100.00
2022-09-25T00:34:19.146Z,100.00
2022-09-25T00:36:47.912Z,100.00
2022-09-25T00:39:16.647Z,100.00
2022-09-25T00:41:45.603Z,100.00
2022-09-25T00:44:52.521Z,100.00
2022-09-25T00:47:24.090Z,100.00
2022-09-25T00:49:54.506Z,100.00
2022-09-25T00:52:24.493Z,100.00
2022-09-25T00:54:55.404Z,100.00
2022-09-25T00:57:27.047Z,100.00
2022-09-25T01:00:00.157Z,100.00
2022-09-25T01:02:30.917Z,100.00
2022-09-25T01:05:02.651Z,100.00
2022-09-25T01:07:32.330Z,100.00
2022-09-25T01:10:02.928Z,100.00
2022-09-25T01:12:32.020Z,100.00
2022-09-25T01:15:02.356Z,100.00
2022-09-25T01:17:36.787Z,100.00
2022-09-25T01:20:15.688Z,100.00
2022-09-25T01:22:54.306Z,100.00
2022-09-25T01:25:31.692Z,100.00
2022-09-25T01:28:14.930Z,100.00
2022-09-25T01:30:47.151Z,100.00
2022-09-25T01:33:19.426Z,100.00
2022-09-25T01:35:51.002Z,100.00
2022-09-25T01:38:26.046Z,100.00
2022-09-25T01:40:58.264Z,100.00
2022-09-25T01:43:31.461Z,100.00
2022-09-25T01:46:03.380Z,100.00
2022-09-25T01:48:33.247Z,100.00
2022-09-25T01:51:04.238Z,100.00
2022-09-25T01:53:39.412Z,100.00
2022-09-25T01:56:12.179Z,100.00
2022-09-25T01:58:43.392Z,100.00
2022-09-25T02:01:16.501Z,100.00
2022-09-25T02:03:49.682Z,100.00
2022-09-25T02:06:23.039Z,100.00
2022-09-25T02:08:55.161Z,100.00
2022-09-25T02:11:26.177Z,100.00
2022-09-25T02:13:58.277Z,100.00
2022-09-25T02:16:32.649Z,100.00
2022-09-25T02:19:19.030Z,100.00
2022-09-25T02:21:51.964Z,100.00
2022-09-25T02:24:23.404Z,100.00
2022-09-25T02:26:52.421Z,100.00
2022-09-25T02:29:21.482Z,100.00
2022-09-25T02:31:53.720Z,100.00
2022-09-25T02:34:22.816Z,100.00
2022-09-25T02:36:51.782Z,100.00
2022-09-25T02:39:22.281Z,100.00
2022-09-25T02:42:04.596Z,100.00
2022-09-25T02:44:40.914Z,100.00
2022-09-25T02:47:20.949Z,100.00
2022-09-25T02:49:52.405Z,100.00
2022-09-25T02:52:27.205Z,100.00
2022-09-25T02:54:59.851Z,100.00
2022-09-25T02:57:34.642Z,100.00
2022-09-25T03:00:08.053Z,100.00
2022-09-25T03:02:39.474Z,100.00
2022-09-25T03:05:09.626Z,100.00
2022-09-25T03:07:52.372Z,100.00
2022-09-25T03:10:21.335Z,100.00
2022-09-25T03:12:50.045Z,100.00
2022-09-25T03:15:19.177Z,100.00
2022-09-25T03:17:51.268Z,100.00
2022-09-25T03:20:20.142Z,100.00
2022-09-25T03:22:48.579Z,100.00
2022-09-25T03:25:17.859Z,100.00
2022-09-25T03:27:48.846Z,100.00
2022-09-25T03:30:17.693Z,100.00
2022-09-25T03:32:46.317Z,100.00
2022-09-25T03:35:16.778Z,100.00
2022-09-25T03:37:45.080Z,100.00
2022-09-25T03:40:13.849Z,100.00
2022-09-25T03:42:44.130Z,100.00
2022-09-25T03:45:12.844Z,100.00
2022-09-25T03:47:41.564Z,100.00
2022-09-25T03:50:10.631Z,100.00
2022-09-25T03:52:40.380Z,100.00
2022-09-25T03:55:12.109Z,100.00
2022-09-25T03:57:41.727Z,100.00
2022-09-25T04:00:11.311Z,100.00
2022-09-25T04:02:42.840Z,100.00
2022-09-25T04:05:12.256Z,100.00
2022-09-25T04:07:42.040Z,100.00
2022-09-25T04:10:10.931Z,100.00
2022-09-25T04:12:39.557Z,100.00
2022-09-25T04:15:10.142Z,100.00
2022-09-25T04:17:38.931Z,100.00
2022-09-25T04:20:08.545Z,100.00
2022-09-25T04:22:37.679Z,100.00
2022-09-25T04:25:10.149Z,100.00
2022-09-25T04:27:39.198Z,100.00
2022-09-25T04:30:09.217Z,100.00
2022-09-25T04:32:55.697Z,100.00
2022-09-25T04:35:24.431Z,100.00
2022-09-25T04:37:52.832Z,100.00
2022-09-25T04:40:23.007Z,100.00
2022-09-25T04:42:56.921Z,100.00
2022-09-25T04:45:26.825Z,100.00
2022-09-25T04:47:55.845Z,100.00
2022-09-25T04:50:24.761Z,100.00
2022-09-25T04:52:53.475Z,100.00
2022-09-25T04:55:24.988Z,100.00
2022-09-25T04:57:58.795Z,100.00
2022-09-25T05:00:29.556Z,100.00
2022-09-25T05:02:58.595Z,100.00
2022-09-25T05:05:28.322Z,100.00
2022-09-25T05:07:58.132Z,100.00
2022-09-25T05:10:30.087Z,100.00
2022-09-25T05:12:59.719Z,100.00
2022-09-25T05:15:29.935Z,100.00
2022-09-25T05:18:01.864Z,100.00
2022-09-25T05:20:30.510Z,100.00
2022-09-25T05:22:59.661Z,100.00
2022-09-25T05:25:29.379Z,100.00
2022-09-25T05:27:59.479Z,100.00
2022-09-25T05:30:30.140Z,100.00
2022-09-25T05:32:59.557Z,100.00
2022-09-25T05:35:29.495Z,100.00
2022-09-25T05:37:57.854Z,100.00
2022-09-25T05:40:26.667Z,100.00
2022-09-25T05:42:57.207Z,100.00
2022-09-25T05:45:25.642Z,100.00
2022-09-25T05:48:03.568Z,100.00
2022-09-25T05:50:33.348Z,100.00
2022-09-25T05:53:05.963Z,100.00
2022-09-25T05:55:34.515Z,100.00
2022-09-25T05:58:05.594Z,100.00
2022-09-25T06:00:34.564Z,100.00
2022-09-25T06:03:03.496Z,100.00
2022-09-25T06:05:32.677Z,100.00
2022-09-25T06:08:01.370Z,100.00
2022-09-25T06:10:31.090Z,100.00
2022-09-25T06:13:00.047Z,100.00
2022-09-25T06:15:30.975Z,100.00
2022-09-25T06:17:59.752Z,100.00
2022-09-25T06:20:28.535Z,100.00
2022-09-25T06:22:57.968Z,100.00
2022-09-25T06:25:29.240Z,100.00
2022-09-25T06:28:00.401Z,100.00
2022-09-25T06:30:34.540Z,100.00
2022-09-25T06:33:04.479Z,100.00
2022-09-25T06:35:33.760Z,100.00
2022-09-25T06:38:03.717Z,100.00
2022-09-25T06:40:33.908Z,100.00
2022-09-25T06:43:03.619Z,100.00
2022-09-25T06:45:35.721Z,100.00
2022-09-25T06:48:06.674Z,100.00
2022-09-25T06:50:41.035Z,100.00
2022-09-25T06:53:10.020Z,100.00
2022-09-25T06:55:38.747Z,100.00
2022-09-25T06:58:09.874Z,100.00
2022-09-25T07:00:40.017Z,100.00
2022-09-25T07:03:37.552Z,100.00
2022-09-25T07:06:07.814Z,100.00
2022-09-25T07:08:36.195Z,100.00
2022-09-25T07:11:05.464Z,100.00
2022-09-25T07:13:35.526Z,96.47
2022-09-25T07:16:07.075Z,92.26
2022-09-25T07:18:36.044Z,100.00
2022-09-25T07:21:06.738Z,100.00
2022-09-25T07:23:35.746Z,100.00
2022-09-25T07:26:08.410Z,100.00
2022-09-25T07:28:37.229Z,100.00
2022-09-25T07:31:15.171Z,93.44
2022-09-25T07:33:44.186Z,99.60
2022-09-25T07:36:13.061Z,100.00
2022-09-25T07:38:42.298Z,100.00
2022-09-25T07:41:13.614Z,100.00
2022-09-25T07:43:43.859Z,100.00
2022-09-25T07:46:14.070Z,100.00
2022-09-25T07:48:42.547Z,100.00
2022-09-25T07:51:12.873Z,100.00
2022-09-25T07:53:42.795Z,92.27
2022-09-25T07:56:12.735Z,84.86
2022-09-25T07:58:41.557Z,94.63
2022-09-25T08:01:14.343Z,100.00
2022-09-25T08:03:43.059Z,100.00
2022-09-25T08:06:13.471Z,100.00
2022-09-25T08:08:42.950Z,100.00
2022-09-25T08:11:12.862Z,100.00
2022-09-25T08:13:41.837Z,100.00
2022-09-25T08:16:13.554Z,100.00
2022-09-25T08:18:45.535Z,100.00
2022-09-25T08:21:15.331Z,100.00
2022-09-25T08:23:48.034Z,100.00
2022-09-25T08:26:17.337Z,100.00
2022-09-25T08:28:45.942Z,100.00
2022-09-25T08:31:15.552Z,100.00
2022-09-25T08:33:47.704Z,100.00
2022-09-25T08:36:17.126Z,100.00
2022-09-25T08:38:46.863Z,100.00
2022-09-25T08:41:19.206Z,100.00
2022-09-25T08:43:56.065Z,100.00
2022-09-25T08:46:47.914Z,100.00
2022-09-25T08:49:20.342Z,69.97
2022-09-25T08:51:51.567Z,57.96
2022-09-25T08:54:22.666Z,55.02
2022-09-25T08:56:52.379Z,49.33
2022-09-25T08:59:26.290Z,46.06
2022-09-25T09:01:58.255Z,62.01
2022-09-25T09:04:32.149Z,93.54
2022-09-25T09:07:25.943Z,96.64
2022-09-25T09:10:01.551Z,91.20
2022-09-25T09:12:36.976Z,85.24
2022-09-25T09:15:26.918Z,87.21
2022-09-25T09:17:56.402Z,88.69
2022-09-25T09:20:30.786Z,87.81
2022-09-25T09:22:59.354Z,83.37
2022-09-25T09:25:30.457Z,70.18
2022-09-25T09:28:12.899Z,70.65
2022-09-25T09:30:47.333Z,62.20
2022-09-25T09:33:25.769Z,59.74
2022-09-25T09:36:05.382Z,42.57
2022-09-25T09:38:43.017Z,41.70
2022-09-25T09:41:20.366Z,42.05
2022-09-25T09:44:00.013Z,38.71
2022-09-25T09:46:37.223Z,40.27
2022-09-25T09:49:13.919Z,38.47
2022-09-25T09:51:47.821Z,33.92
2022-09-25T09:54:21.400Z,36.15
2022-09-25T09:56:52.047Z,30.67
2022-09-25T09:59:23.853Z,26.36
2022-09-25T10:02:02.083Z,26.94
2022-09-25T10:04:35.308Z,25.91
2022-09-25T10:07:13.772Z,24.07
2022-09-25T10:09:43.086Z,29.22
2022-09-25T10:12:15.378Z,28.95
2022-09-25T10:14:47.253Z,29.33
2022-09-25T10:17:17.290Z,31.97
2022-09-25T10:19:49.568Z,29.91
2022-09-25T10:22:23.524Z,26.92
2022-09-25T10:24:58.674Z,25.47
2022-09-25T10:27:30.481Z,26.30
2022-09-25T10:30:18.849Z,28.92
2022-09-25T10:32:57.527Z,35.94
2022-09-25T10:35:30.165Z,35.59
2022-09-25T10:38:02.141Z,44.89
2022-09-25T10:40:33.513Z,34.76
2022-09-25T10:43:08.510Z,31.60
2022-09-25T10:45:40.862Z,30.83
2022-09-25T10:48:43.846Z,40.37
2022-09-25T10:51:17.799Z,42.89
2022-09-25T10:53:49.053Z,53.64
2022-09-25T10:56:20.820Z,64.90
2022-09-25T10:58:52.802Z,50.16
2022-09-25T11:01:21.801Z,38.76
2022-09-25T11:03:54.296Z,32.81
2022-09-25T11:06:25.953Z,30.30
2022-09-25T11:09:09.531Z,33.04
2022-09-25T11:11:41.048Z,33.15
2022-09-25T11:14:22.598Z,35.62
2022-09-25T11:16:53.516Z,39.57
2022-09-25T11:19:29.217Z,36.53
2022-09-25T11:22:08.892Z,30.53
2022-09-25T11:24:51.434Z,33.61
2022-09-25T11:27:25.177Z,32.72
2022-09-25T11:30:03.519Z,29.87
2022-09-25T11:32:39.302Z,26.83
2022-09-25T11:35:21.281Z,25.49
2022-09-25T11:37:59.005Z,24.13
2022-09-25T11:41:02.571Z,22.08
2022-09-25T11:43:43.113Z,26.12
2022-09-25T11:46:21.612Z,27.56
2022-09-25T11:48:58.746Z,30.58
2022-09-25T11:51:44.110Z,29.53
2022-09-25T11:54:37.549Z,29.70
2022-09-25T11:57:11.957Z,31.25
2022-09-25T11:59:51.074Z,28.90
2022-09-25T12:02:28.046Z,29.16
2022-09-25T12:05:07.856Z,29.04
2022-09-25T12:07:49.188Z,28.72
2022-09-25T12:10:28.745Z,30.35
2022-09-25T12:13:04.504Z,28.94
2022-09-25T12:15:47.752Z,24.96
2022-09-25T12:18:25.604Z,24.98
2022-09-25T12:20:59.638Z,29.02
2022-09-25T12:23:35.298Z,32.99
2022-09-25T12:26:17.973Z,53.08
2022-09-25T12:29:06.518Z,65.93
2022-09-25T12:31:41.692Z,72.55
2022-09-25T12:34:18.952Z,77.14
2022-09-25T12:36:52.351Z,75.93
2022-09-25T12:39:30.065Z,74.76
2022-09-25T12:42:07.666Z,69.64
2022-09-25T12:44:43.833Z,63.66
2022-09-25T12:47:17.669Z,66.28
2022-09-25T12:49:48.331Z,72.60
2022-09-25T12:52:19.877Z,77.59
2022-09-25T12:54:52.892Z,76.99
2022-09-25T12:57:26.315Z,88.46
2022-09-25T12:59:59.130Z,88.92
2022-09-25T13:02:30.974Z,88.48
2022-09-25T13:05:07.071Z,82.63
2022-09-25T13:07:40.099Z,71.94
2022-09-25T13:10:21.966Z,65.81
2022-09-25T13:12:51.608Z,68.26
2022-09-25T13:15:24.571Z,68.70
2022-09-25T13:17:53.726Z,71.68
2022-09-25T13:20:54.245Z,73.03
2022-09-25T13:23:35.807Z,73.32
2022-09-25T13:26:12.693Z,70.75
2022-09-25T13:28:43.238Z,70.06
2022-09-25T13:31:16.615Z,70.32
2022-09-25T13:33:50.714Z,70.51
2022-09-25T13:36:38.585Z,81.01
2022-09-25T13:39:33.536Z,82.89
2022-09-25T13:42:06.722Z,83.69
2022-09-25T13:44:41.316Z,88.22
2022-09-25T13:47:55.445Z,85.51
2022-09-25T13:50:43.905Z,89.56
2022-09-25T13:53:21.521Z,92.50
2022-09-25T13:56:19.207Z,92.57
2022-09-25T13:59:22.037Z,88.70
2022-09-25T14:01:54.153Z,86.74
2022-09-25T14:04:40.816Z,89.24
2022-09-25T14:07:19.238Z,90.61
2022-09-25T14:09:51.655Z,92.86
2022-09-25T14:12:27.571Z,95.83
2022-09-25T14:15:02.757Z,96.13
2022-09-25T14:17:33.393Z,94.74
2022-09-25T14:20:06.519Z,94.83
2022-09-25T14:22:44.330Z,97.16
2022-09-25T14:25:33.234Z,100.00
2022-09-25T14:28:02.591Z,99.97
2022-09-25T14:30:33.114Z,100.00
2022-09-25T14:33:23.822Z,99.89
2022-09-25T14:36:01.779Z,100.00
2022-09-25T14:39:20.555Z,100.00
2022-09-25T14:42:23.512Z,99.01
2022-09-25T14:45:19.735Z,97.25
2022-09-25T14:47:52.697Z,96.64
2022-09-25T14:50:23.581Z,100.00
2022-09-25T14:52:53.792Z,100.00
2022-09-25T14:55:27.717Z,100.00
2022-09-25T14:57:58.350Z,100.00
2022-09-25T15:00:28.475Z,100.00
2022-09-25T15:02:58.615Z,100.00
2022-09-25T15:05:31.473Z,100.00
2022-09-25T15:08:02.454Z,100.00
2022-09-25T15:10:34.572Z,100.00
2022-09-25T15:13:14.253Z,100.00
2022-09-25T15:16:04.447Z,100.00
2022-09-25T15:18:32.121Z,100.00
2022-09-25T15:21:02.078Z,100.00
2022-09-25T15:23:34.966Z,100.00
2022-09-25T15:26:05.544Z,100.00
2022-09-25T15:28:41.191Z,100.00
2022-09-25T15:31:09.963Z,100.00
2022-09-25T15:33:40.202Z,100.00
2022-09-25T15:36:20.299Z,100.00
2022-09-25T15:39:00.310Z,100.00
2022-09-25T15:41:30.795Z,100.00
2022-09-25T15:44:12.599Z,100.00
2022-09-25T15:46:43.143Z,100.00
2022-09-25T15:49:16.131Z,100.00
2022-09-25T15:51:52.841Z,100.00
2022-09-25T15:54:38.580Z,100.00
2022-09-25T15:57:11.419Z,100.00
2022-09-25T16:00:03.526Z,100.00
2022-09-25T16:02:52.909Z,100.00
2022-09-25T16:05:30.471Z,100.00
2022-09-25T16:08:17.548Z,100.00
2022-09-25T16:10:50.193Z,100.00
2022-09-25T16:13:23.079Z,100.00
2022-09-25T16:15:53.120Z,100.00
2022-09-25T16:18:28.070Z,100.00
2022-09-25T16:20:59.747Z,100.00
2022-09-25T16:23:30.047Z,100.00
2022-09-25T16:25:58.987Z,100.00
2022-09-25T16:28:30.815Z,100.00
2022-09-25T16:31:02.925Z,100.00
2022-09-25T16:33:33.057Z,100.00
2022-09-25T16:36:14.428Z,100.00
2022-09-25T16:39:06.044Z,100.00
2022-09-25T16:41:36.054Z,100.00
2022-09-25T16:44:14.352Z,100.00
2022-09-25T16:46:43.453Z,100.00
2022-09-25T16:49:13.441Z,100.00
2022-09-25T16:51:45.684Z,100.00
2022-09-25T16:54:16.277Z,100.00
2022-09-25T16:56:46.418Z,100.00
2022-09-25T16:59:19.759Z,100.00
2022-09-25T17:01:48.871Z,100.00
2022-09-25T17:04:19.358Z,100.00
2022-09-25T17:06:48.488Z,100.00
2022-09-25T17:09:18.634Z,100.00
2022-09-25T17:11:51.297Z,100.00
2022-09-25T17:14:25.166Z,100.00
2022-09-25T17:16:54.896Z,100.00
2022-09-25T17:19:24.244Z,100.00
2022-09-25T17:21:54.194Z,100.00
2022-09-25T17:24:24.457Z,100.00
2022-09-25T17:26:53.639Z,100.00
2022-09-25T17:29:24.138Z,100.00
2022-09-25T17:31:52.722Z,100.00
2022-09-25T17:34:24.981Z,100.00
2022-09-25T17:36:53.800Z,100.00
2022-09-25T17:39:22.826Z,100.00
2022-09-25T17:41:51.680Z,100.00
2022-09-25T17:44:23.771Z,100.00
2022-09-25T17:46:55.821Z,100.00
2022-09-25T17:49:25.685Z,100.00
2022-09-25T17:51:54.590Z,100.00
2022-09-25T17:54:23.435Z,100.00
2022-09-25T17:56:53.626Z,100.00
2022-09-25T17:59:24.808Z,100.00
2022-09-25T18:01:55.224Z,100.00
2022-09-25T18:04:25.876Z,100.00
2022-09-25T18:06:56.900Z,100.00
2022-09-25T18:09:26.447Z,100.00
2022-09-25T18:11:55.334Z,100.00
2022-09-25T18:14:24.724Z,100.00
2022-09-25T18:16:54.594Z,100.00
2022-09-25T18:19:42.484Z,100.00
2022-09-25T18:22:21.909Z,100.00
2022-09-25T18:24:56.780Z,100.00
2022-09-25T18:27:27.120Z,100.00
2022-09-25T18:29:56.329Z,100.00
2022-09-25T18:32:27.140Z,100.00
2022-09-25T18:34:55.230Z,100.00
2022-09-25T18:37:24.121Z,100.00
2022-09-25T18:39:53.451Z,100.00
2022-09-25T18:42:22.273Z,100.00
2022-09-25T18:44:52.344Z,100.00
2022-09-25T18:47:22.150Z,100.00
2022-09-25T18:49:52.450Z,100.00
2022-09-25T18:52:21.341Z,100.00
2022-09-25T18:54:50.568Z,100.00
2022-09-25T18:57:19.774Z,100.00
2022-09-25T18:59:49.792Z,100.00
2022-09-25T19:02:21.043Z,100.00
2022-09-25T19:04:52.648Z,100.00
2022-09-25T19:07:24.602Z,100.00
2022-09-25T19:09:55.185Z,100.00
2022-09-25T19:12:24.203Z,100.00
2022-09-25T19:14:53.402Z,100.00
2022-09-25T19:17:22.158Z,100.00
2022-09-25T19:19:52.011Z,100.00
2022-09-25T19:22:21.940Z,100.00
2022-09-25T19:24:51.311Z,100.00
2022-09-25T19:27:20.556Z,100.00
2022-09-25T19:29:49.927Z,100.00
2022-09-25T19:32:19.679Z,100.00
2022-09-25T19:34:48.886Z,100.00
2022-09-25T19:37:19.835Z,100.00
2022-09-25T19:40:06.034Z,100.00
2022-09-25T19:42:37.479Z,100.00
2022-09-25T19:45:07.263Z,100.00
2022-09-25T19:47:36.181Z,100.00
2022-09-25T19:50:08.790Z,100.00
2022-09-25T19:52:38.611Z,100.00
2022-09-25T19:55:08.097Z,100.00
2022-09-25T19:57:38.423Z,100.00
2022-09-25T20:00:09.599Z,100.00
2022-09-25T20:02:38.500Z,100.00
2022-09-25T20:05:09.276Z,100.00
2022-09-25T20:07:39.600Z,100.00
2022-09-25T20:10:08.183Z,100.00
2022-09-25T20:12:36.939Z,100.00
2022-09-25T20:15:06.409Z,100.00
2022-09-25T20:17:35.218Z,100.00
2022-09-25T20:20:04.428Z,100.00
2022-09-25T20:22:33.153Z,100.00
2022-09-25T20:25:03.311Z,100.00
2022-09-25T20:27:32.635Z,100.00
2022-09-25T20:30:01.382Z,100.00
2022-09-25T20:32:30.265Z,100.00
2022-09-25T20:34:59.087Z,100.00
2022-09-25T20:37:27.773Z,100.00
2022-09-25T20:39:56.527Z,100.00
2022-09-25T20:42:26.777Z,100.00
2022-09-25T20:44:56.617Z,100.00
2022-09-25T20:47:25.405Z,100.00
2022-09-25T20:49:53.724Z,100.00
2022-09-25T20:52:22.478Z,100.00
2022-09-25T20:54:51.261Z,100.00
2022-09-25T20:57:20.121Z,100.00
2022-09-25T20:59:50.327Z,100.00
2022-09-25T21:02:19.018Z,100.00
2022-09-25T21:04:48.056Z,100.00
2022-09-25T21:07:17.438Z,100.00
2022-09-25T21:09:48.954Z,100.00
2022-09-25T21:12:17.726Z,100.00
2022-09-25T21:14:46.615Z,100.00
2022-09-25T21:17:17.920Z,100.00
2022-09-25T21:19:46.314Z,100.00
2022-09-25T21:22:15.001Z,100.00
2022-09-25T21:24:43.675Z,100.00
2022-09-25T21:27:12.309Z,100.00
2022-09-25T21:29:41.036Z,100.00
2022-09-25T21:32:10.062Z,100.00
2022-09-25T21:34:39.968Z,100.00
2022-09-25T21:37:08.723Z,100.00
2022-09-25T21:39:38.153Z,100.00
2022-09-25T21:42:07.106Z,100.00
2022-09-25T21:44:35.777Z,100.00
2022-09-25T21:47:04.497Z,100.00
2022-09-25T21:49:33.719Z,100.00
2022-09-25T21:52:04.075Z,100.00
2022-09-25T21:54:33.151Z,100.00
2022-09-25T21:57:01.956Z,100.00
2022-09-25T21:59:30.787Z,100.00
2022-09-25T22:01:59.643Z,100.00
2022-09-25T22:04:28.123Z,100.00
2022-09-25T22:06:58.908Z,100.00
2022-09-25T22:09:29.052Z,100.00
2022-09-25T22:11:57.943Z,100.00
2022-09-25T22:14:29.352Z,100.00
2022-09-25T22:16:57.880Z,100.00
2022-09-25T22:19:27.916Z,100.00
2022-09-25T22:21:58.350Z,100.00
2022-09-25T22:24:28.815Z,100.00
2022-09-25T22:26:57.360Z,100.00
2022-09-25T22:29:26.565Z,100.00
2022-09-25T22:31:55.239Z,100.00
2022-09-25T22:34:25.707Z,100.00
2022-09-25T22:36:58.924Z,100.00
2022-09-25T22:39:30.561Z,100.00
2022-09-25T22:41:59.361Z,100.00
2022-09-25T22:44:28.036Z,100.00
2022-09-25T22:46:56.670Z,100.00
2022-09-25T22:49:25.506Z,100.00
2022-09-25T22:51:54.192Z,100.00
2022-09-25T22:54:22.889Z,100.00
2022-09-25T22:56:54.048Z,100.00
2022-09-25T22:59:22.811Z,100.00
2022-09-25T23:01:52.425Z,100.00
2022-09-25T23:04:22.818Z,100.00
2022-09-25T23:06:53.019Z,100.00
2022-09-25T23:09:25.025Z,100.00
2022-09-25T23:11:55.595Z,100.00
2022-09-25T23:14:26.368Z,100.00
2022-09-25T23:16:55.295Z,100.00
2022-09-25T23:19:24.796Z,100.00
2022-09-25T23:21:54.394Z,100.00
2022-09-25T23:24:23.900Z,100.00
2022-09-25T23:26:55.201Z,100.00
2022-09-25T23:29:24.455Z,100.00
2022-09-25T23:31:53.336Z,100.00
2022-09-25T23:34:22.343Z,100.00
2022-09-25T23:36:51.095Z,100.00
2022-09-25T23:39:21.142Z,100.00
2022-09-25T23:41:51.072Z,100.00
2022-09-25T23:44:21.386Z,100.00
2022-09-25T23:46:50.304Z,100.00
2022-09-25T23:49:19.274Z,100.00
2022-09-25T23:51:48.242Z,100.00
2022-09-25T23:54:18.394Z,100.00
2022-09-25T23:56:47.136Z,100.00
2022-09-25T23:59:16.152Z,100.00
